createdAt,value
2018-07-23T00:00:19.137Z,100321.23
2018-07-23T00:02:48.473Z,100333.17
2018-07-23T00:05:17.748Z,100334.84
2018-07-23T00:07:46.982Z,100325.02
2018-07-23T00:10:16.470Z,100330.14
2018-07-23T00:12:45.786Z,100326.51
2018-07-23T00:15:15.146Z,100325.90
2018-07-23T00:17:44.381Z,100329.67
2018-07-23T00:20:13.694Z,100330.17
2018-07-23T00:22:43.097Z,100316.38
2018-07-23T00:25:12.395Z,100316.16
2018-07-23T00:27:41.841Z,100315.63
2018-07-23T00:30:11.170Z,100315.33
2018-07-23T00:32:40.510Z,100314.72
2018-07-23T00:35:10.828Z,100313.36
2018-07-23T00:37:40.218Z,100317.09
2018-07-23T00:40:09.737Z,100323.28
2018-07-23T00:42:39.140Z,100319.04
2018-07-23T00:45:09.022Z,100317.89
2018-07-23T00:47:38.609Z,100321.80
2018-07-23T00:50:07.938Z,100321.48
2018-07-23T00:52:37.701Z,100320.12
2018-07-23T00:55:06.940Z,100319.52
2018-07-23T00:57:36.194Z,100316.92
2018-07-23T01:00:05.545Z,100313.04
2018-07-23T01:02:34.982Z,100315.58
2018-07-23T01:05:04.242Z,100308.22
2018-07-23T01:07:33.505Z,100313.01
2018-07-23T01:10:02.741Z,100307.87
2018-07-23T01:12:33.159Z,100306.95
2018-07-23T01:15:02.499Z,100310.55
2018-07-23T01:17:31.834Z,100307.27
2018-07-23T01:20:01.235Z,100311.55
2018-07-23T01:22:30.631Z,100313.53
2018-07-23T01:24:59.966Z,100310.81
2018-07-23T01:27:29.175Z,100318.22
2018-07-23T01:29:58.402Z,100312.73
2018-07-23T01:32:27.685Z,100318.69
2018-07-23T01:34:57.031Z,100321.36
2018-07-23T01:37:26.362Z,100321.36
2018-07-23T01:39:55.713Z,100322.32
2018-07-23T01:42:24.965Z,100325.34
2018-07-23T01:44:54.314Z,100328.89
2018-07-23T01:47:23.620Z,100328.89
2018-07-23T01:49:53.012Z,100327.23
2018-07-23T01:52:22.294Z,100325.59
2018-07-23T01:54:51.749Z,100335.70
2018-07-23T01:57:21.008Z,100332.37
2018-07-23T01:59:50.331Z,100332.67
2018-07-23T02:02:19.603Z,100335.30
2018-07-23T02:04:49.333Z,100336.86
2018-07-23T02:07:25.292Z,100332.80
2018-07-23T02:09:54.595Z,100338.13
2018-07-23T02:12:23.833Z,100330.59
2018-07-23T02:14:53.081Z,100341.25
2018-07-23T02:17:22.370Z,100334.59
2018-07-23T02:19:51.715Z,100338.34
2018-07-23T02:22:20.990Z,100347.22
2018-07-23T02:24:50.312Z,100344.80
2018-07-23T02:27:19.587Z,100344.80
2018-07-23T02:29:48.913Z,100352.02
2018-07-23T02:32:18.181Z,100354.92
2018-07-23T02:34:47.158Z,100350.86
2018-07-23T02:37:16.292Z,100348.14
2018-07-23T02:39:45.258Z,100352.11
2018-07-23T02:42:14.212Z,100355.03
2018-07-23T02:44:43.250Z,100358.20
2018-07-23T02:47:12.660Z,100358.55
2018-07-23T02:49:41.650Z,100357.51
2018-07-23T02:52:10.572Z,100354.80
2018-07-23T02:54:39.549Z,100353.13
2018-07-23T02:57:08.497Z,100350.41
2018-07-23T02:59:37.518Z,100352.27
2018-07-23T03:02:06.431Z,100355.19
2018-07-23T03:04:35.410Z,100356.54
2018-07-23T03:07:04.442Z,100355.29
2018-07-23T03:09:33.450Z,100350.59
2018-07-23T03:12:02.392Z,100349.97
2018-07-23T03:14:31.373Z,100352.45
2018-07-23T03:17:00.302Z,100352.34
2018-07-23T03:19:29.353Z,100352.73
2018-07-23T03:21:58.337Z,100356.80
2018-07-23T03:24:27.340Z,100356.41
2018-07-23T03:26:56.459Z,100351.68
2018-07-23T03:29:25.759Z,100352.03
2018-07-23T03:31:55.031Z,100362.87
2018-07-23T03:34:24.284Z,100364.23
2018-07-23T03:36:53.546Z,100365.23
2018-07-23T03:39:22.865Z,100368.67
2018-07-23T03:41:52.149Z,100368.36
2018-07-23T03:44:21.573Z,100377.22
2018-07-23T03:46:50.845Z,100373.16
2018-07-23T03:49:20.065Z,100375.14
2018-07-23T03:51:49.348Z,100367.33
2018-07-23T03:54:18.762Z,100366.70
2018-07-23T03:56:48.058Z,100370.34
2018-07-23T03:59:17.367Z,100370.34
2018-07-23T04:01:46.710Z,100376.50
2018-07-23T04:04:17.758Z,100374.31
2018-07-23T04:06:48.466Z,100377.44
2018-07-23T04:09:18.171Z,100379.77
2018-07-23T04:11:47.529Z,100381.75
2018-07-23T04:14:16.999Z,100386.75
2018-07-23T04:16:46.197Z,100386.66
2018-07-23T04:19:16.062Z,100385.23
2018-07-23T04:21:45.681Z,100391.06
2018-07-23T04:24:15.694Z,100394.61
2018-07-23T04:26:45.065Z,100399.62
2018-07-23T04:29:14.408Z,100397.53
2018-07-23T04:31:43.670Z,100401.05
2018-07-23T04:34:13.094Z,100403.75
2018-07-23T04:36:42.470Z,100406.28
2018-07-23T04:39:11.700Z,100405.75
2018-07-23T04:41:41.054Z,100407.63
2018-07-23T04:44:10.290Z,100406.60
2018-07-23T04:46:39.446Z,100405.37
2018-07-23T04:49:08.856Z,100413.70
2018-07-23T04:51:38.062Z,100419.86
2018-07-23T04:54:07.310Z,100420.83
2018-07-23T04:56:36.589Z,100424.69
2018-07-23T04:59:06.018Z,100425.20
2018-07-23T05:01:35.329Z,100426.05
2018-07-23T05:04:04.703Z,100426.97
2018-07-23T05:06:33.909Z,100427.26
2018-07-23T05:09:03.243Z,100427.97
2018-07-23T05:11:32.525Z,100431.80
2018-07-23T05:14:02.074Z,100436.83
2018-07-23T05:16:31.309Z,100435.08
2018-07-23T05:19:00.691Z,100431.56
2018-07-23T05:21:30.132Z,100433.56
2018-07-23T05:24:00.346Z,100429.06
2018-07-23T05:26:29.846Z,100435.81
2018-07-23T05:28:59.114Z,100441.98
2018-07-23T05:31:28.593Z,100436.88
2018-07-23T05:33:58.173Z,100440.58
2018-07-23T05:36:27.674Z,100440.48
2018-07-23T05:38:57.069Z,100442.25
2018-07-23T05:41:27.744Z,100446.96
2018-07-23T05:43:57.326Z,100451.58
2018-07-23T05:46:26.702Z,100453.59
2018-07-23T05:48:56.360Z,100449.94
2018-07-23T05:51:25.610Z,100452.07
2018-07-23T05:53:54.801Z,100450.14
2018-07-23T05:56:23.976Z,100458.33
2018-07-23T05:58:53.281Z,100456.31
2018-07-23T06:01:22.557Z,100456.17
2018-07-23T06:03:51.889Z,100459.30
2018-07-23T06:06:21.388Z,100458.55
2018-07-23T06:08:50.494Z,100460.36
2018-07-23T06:11:19.974Z,100462.84
2018-07-23T06:13:49.099Z,100470.08
2018-07-23T06:16:18.427Z,100464.00
2018-07-23T06:18:47.725Z,100472.36
2018-07-23T06:21:17.130Z,100480.67
2018-07-23T06:23:46.376Z,100475.32
2018-07-23T06:26:15.620Z,100481.76
2018-07-23T06:28:45.314Z,100480.28
2018-07-23T06:31:14.990Z,100483.73
2018-07-23T06:33:44.472Z,100487.38
2018-07-23T06:36:14.491Z,100493.25
2018-07-23T06:38:44.219Z,100492.77
2018-07-23T06:41:13.815Z,100495.08
2018-07-23T06:43:43.628Z,100500.25
2018-07-23T06:46:13.291Z,100497.30
2018-07-23T06:48:42.531Z,100498.75
2018-07-23T06:51:11.922Z,100496.13
2018-07-23T06:53:41.202Z,100498.63
2018-07-23T06:56:10.566Z,100493.22
2018-07-23T06:58:39.758Z,100510.80
2018-07-23T07:01:09.006Z,100508.34
2018-07-23T07:03:38.305Z,100502.16
2018-07-23T07:06:08.399Z,100502.70
2018-07-23T07:08:37.751Z,100500.91
2018-07-23T07:11:06.960Z,100501.72
2018-07-23T07:13:36.276Z,100498.45
2018-07-23T07:16:05.610Z,100504.36
2018-07-23T07:18:34.831Z,100506.78
2018-07-23T07:21:04.152Z,100502.72
2018-07-23T07:23:33.411Z,100491.00
2018-07-23T07:26:02.859Z,100501.43
2018-07-23T07:28:32.231Z,100503.84
2018-07-23T07:31:01.517Z,100500.84
2018-07-23T07:33:30.813Z,100500.96
2018-07-23T07:36:00.031Z,100499.09
2018-07-23T07:38:29.295Z,100507.03
2018-07-23T07:40:58.737Z,100502.66
2018-07-23T07:43:28.022Z,100502.55
2018-07-23T07:45:57.382Z,100492.34
2018-07-23T07:48:26.569Z,100492.75
2018-07-23T07:50:56.042Z,100496.66
2018-07-23T07:53:25.340Z,100491.52
2018-07-23T07:55:54.530Z,100488.39
2018-07-23T07:58:23.801Z,100485.47
2018-07-23T08:00:53.042Z,100490.11
2018-07-23T08:03:22.291Z,100492.98
2018-07-23T08:05:51.550Z,100488.43
2018-07-23T08:08:21.014Z,100489.89
2018-07-23T08:10:50.239Z,100489.66
2018-07-23T08:13:19.496Z,100490.70
2018-07-23T08:15:48.761Z,100487.16
2018-07-23T08:18:17.974Z,100485.23
2018-07-23T08:20:47.344Z,100488.30
2018-07-23T08:23:16.650Z,100488.19
2018-07-23T08:25:46.046Z,100490.27
2018-07-23T08:28:15.632Z,100491.72
2018-07-23T08:30:44.918Z,100489.02
2018-07-23T08:33:14.283Z,100491.66
2018-07-23T08:35:43.602Z,100492.29
2018-07-23T08:38:13.049Z,100490.78
2018-07-23T08:40:42.434Z,100494.75
2018-07-23T08:43:12.359Z,100488.17
2018-07-23T08:45:41.651Z,100489.78
2018-07-23T08:48:10.920Z,100487.98
2018-07-23T08:50:39.846Z,100485.14
2018-07-23T08:53:08.845Z,100481.70
2018-07-23T08:55:37.825Z,100484.04
2018-07-23T08:58:07.549Z,100492.62
2018-07-23T09:00:36.482Z,100491.27
2018-07-23T09:03:05.889Z,100486.00
2018-07-23T09:05:35.243Z,100488.29
2018-07-23T09:08:04.903Z,100491.55
2018-07-23T09:10:34.134Z,100493.27
2018-07-23T09:13:03.383Z,100498.36
2018-07-23T09:15:32.641Z,100489.78
2018-07-23T09:18:01.937Z,100486.27
2018-07-23T09:20:31.153Z,100479.97
2018-07-23T09:23:00.530Z,100484.59
2018-07-23T09:25:34.714Z,100481.67
2018-07-23T09:28:04.010Z,100477.94
2018-07-23T09:30:38.217Z,100482.34
2018-07-23T09:33:07.511Z,100475.02
2018-07-23T09:35:36.699Z,100471.30
2018-07-23T09:38:05.986Z,100465.84
2018-07-23T09:40:35.295Z,100476.98
2018-07-23T09:43:04.859Z,100468.64
2018-07-23T09:45:34.133Z,100465.33
2018-07-23T09:48:03.401Z,100463.72
2018-07-23T09:50:32.674Z,100469.41
2018-07-23T09:53:02.384Z,100460.45
2018-07-23T09:55:31.585Z,100456.23
2018-07-23T09:58:00.833Z,100450.75
2018-07-23T10:00:35.222Z,100447.14
2018-07-23T10:03:04.473Z,100450.67
2018-07-23T10:05:33.715Z,100444.54
2018-07-23T10:08:03.053Z,100448.39
2018-07-23T10:10:32.410Z,100445.77
2018-07-23T10:13:01.696Z,100450.04
2018-07-23T10:15:30.915Z,100452.32
2018-07-23T10:18:03.255Z,100460.54
2018-07-23T10:20:32.705Z,100450.56
2018-07-23T10:23:02.024Z,100453.73
2018-07-23T10:25:31.263Z,100445.59
2018-07-23T10:28:00.618Z,100438.84
2018-07-23T10:30:29.858Z,100445.45
2018-07-23T10:32:59.124Z,100443.56
2018-07-23T10:35:28.290Z,100447.89
2018-07-23T10:37:57.737Z,100448.06
2018-07-23T10:40:26.958Z,100443.92
2018-07-23T10:42:56.614Z,100445.93
2018-07-23T10:45:25.853Z,100438.02
2018-07-23T10:47:55.132Z,100432.75
2018-07-23T10:50:24.755Z,100438.38
2018-07-23T10:52:54.101Z,100434.72
2018-07-23T10:55:23.426Z,100429.23
2018-07-23T10:57:53.035Z,100434.52
2018-07-23T11:00:22.410Z,100431.13
2018-07-23T11:02:51.743Z,100434.42
2018-07-23T11:05:22.089Z,100442.33
2018-07-23T11:07:51.217Z,100434.42
2018-07-23T11:10:20.470Z,100439.91
2018-07-23T11:12:49.639Z,100442.80
2018-07-23T11:15:18.733Z,100442.75
2018-07-23T11:17:47.876Z,100435.70
2018-07-23T11:20:16.994Z,100443.80
2018-07-23T11:22:46.099Z,100434.78
2018-07-23T11:25:38.503Z,100435.86
2018-07-23T11:27:45.020Z,100444.77
2018-07-23T11:30:14.557Z,100434.97
2018-07-23T11:32:43.868Z,100432.65
2018-07-23T11:35:13.243Z,100430.55
2018-07-23T11:37:42.563Z,100426.81
2018-07-23T11:40:11.944Z,100429.64
2018-07-23T11:42:41.387Z,100415.31
2018-07-23T11:45:10.715Z,100418.77
2018-07-23T11:47:39.997Z,100428.27
2018-07-23T11:50:09.404Z,100415.67
2018-07-23T11:52:38.682Z,100419.63
2018-07-23T11:55:07.928Z,100421.02
2018-07-23T11:57:37.382Z,100422.09
2018-07-23T12:00:06.659Z,100412.30
2018-07-23T12:02:36.090Z,100415.02
2018-07-23T12:05:05.250Z,100410.09
2018-07-23T12:07:34.498Z,100404.36
2018-07-23T12:10:03.743Z,100408.02
2018-07-23T12:12:32.882Z,100404.88
2018-07-23T12:15:02.182Z,100400.67
2018-07-23T12:17:31.587Z,100407.29
2018-07-23T12:20:00.843Z,100412.28
2018-07-23T12:22:30.499Z,100395.27
2018-07-23T12:24:59.798Z,100393.93
2018-07-23T12:27:29.102Z,100393.25
2018-07-23T12:29:58.258Z,100398.32
2018-07-23T12:32:27.518Z,100390.19
2018-07-23T12:34:56.899Z,100390.41
2018-07-23T12:37:26.174Z,100389.11
2018-07-23T12:39:55.517Z,100388.23
2018-07-23T12:42:24.865Z,100387.12
2018-07-23T12:44:54.082Z,100383.22
2018-07-23T12:47:23.402Z,100390.04
2018-07-23T12:49:52.714Z,100389.04
2018-07-23T12:52:22.053Z,100378.17
2018-07-23T12:54:51.413Z,100379.70
2018-07-23T12:57:20.662Z,100380.33
2018-07-23T12:59:49.901Z,100382.70
2018-07-23T13:02:19.272Z,100375.95
2018-07-23T13:04:48.505Z,100373.80
2018-07-23T13:07:17.749Z,100379.48
2018-07-23T13:09:47.401Z,100377.77
2018-07-23T13:12:16.693Z,100374.48
2018-07-23T13:14:45.992Z,100366.84
2018-07-23T13:17:15.390Z,100367.34
2018-07-23T13:19:44.753Z,100366.46
2018-07-23T13:22:14.018Z,100364.41
2018-07-23T13:24:43.342Z,100362.69
2018-07-23T13:27:12.767Z,100364.85
2018-07-23T13:29:42.006Z,100359.34
2018-07-23T13:32:11.746Z,100366.79
2018-07-23T13:34:41.022Z,100366.36
2018-07-23T13:37:10.703Z,100357.08
2018-07-23T13:39:39.985Z,100362.94
2018-07-23T13:42:09.200Z,100366.34
2018-07-23T13:44:38.346Z,100369.72
2018-07-23T13:47:07.762Z,100361.17
2018-07-23T13:49:37.161Z,100359.44
2018-07-23T13:52:06.410Z,100355.69
2018-07-23T13:54:35.669Z,100356.98
2018-07-23T13:57:05.029Z,100354.53
2018-07-23T13:59:34.467Z,100352.27
2018-07-23T14:02:03.751Z,100358.02
2018-07-23T14:04:33.031Z,100351.95
2018-07-23T14:07:02.209Z,100344.29
2018-07-23T14:09:31.470Z,100352.64
2018-07-23T14:12:00.716Z,100352.55
2018-07-23T14:14:29.946Z,100352.34
2018-07-23T14:16:59.294Z,100349.67
2018-07-23T14:19:28.545Z,100342.73
2018-07-23T14:21:57.820Z,100346.27
2018-07-23T14:24:27.170Z,100343.02
2018-07-23T14:26:56.465Z,100343.08
2018-07-23T14:29:25.846Z,100338.74
2018-07-23T14:31:55.140Z,100337.10
2018-07-23T14:34:24.700Z,100339.32
2018-07-23T14:36:53.956Z,100339.73
2018-07-23T14:39:23.286Z,100328.34
2018-07-23T14:41:52.662Z,100326.77
2018-07-23T14:44:22.064Z,100322.09
2018-07-23T14:46:51.420Z,100326.16
2018-07-23T14:49:20.790Z,100322.75
2018-07-23T14:51:50.034Z,100326.33
2018-07-23T14:54:19.462Z,100321.36
2018-07-23T14:56:48.610Z,100322.38
2018-07-23T14:59:18.083Z,100322.07
2018-07-23T15:01:47.351Z,100323.40
2018-07-23T15:04:16.784Z,100322.44
2018-07-23T15:06:46.178Z,100321.34
2018-07-23T15:09:15.490Z,100318.87
2018-07-23T15:11:44.770Z,100319.97
2018-07-23T15:14:14.073Z,100321.02
2018-07-23T15:16:43.224Z,100319.94
2018-07-23T15:19:12.591Z,100315.67
2018-07-23T15:21:41.862Z,100319.67
2018-07-23T15:24:11.114Z,100318.55
2018-07-23T15:26:40.372Z,100321.68
2018-07-23T15:29:09.690Z,100318.91
2018-07-23T15:31:38.981Z,100318.60
2018-07-23T15:34:08.159Z,100317.43
2018-07-23T15:36:37.421Z,100317.56
2018-07-23T15:39:08.881Z,100319.31
2018-07-23T15:41:38.342Z,100316.19
2018-07-23T15:44:07.832Z,100320.54
2018-07-23T15:46:36.986Z,100325.01
2018-07-23T15:49:06.460Z,100318.13
2018-07-23T15:51:35.699Z,100322.15
2018-07-23T15:54:04.944Z,100325.97
2018-07-23T15:56:34.225Z,100324.13
2018-07-23T15:59:03.593Z,100322.56
2018-07-23T16:01:32.905Z,100322.96
2018-07-23T16:04:02.263Z,100319.91
2018-07-23T16:06:31.670Z,100323.81
2018-07-23T16:09:00.925Z,100319.94
2018-07-23T16:11:30.245Z,100312.89
2018-07-23T16:13:59.611Z,100315.52
2018-07-23T16:16:28.936Z,100315.59
2018-07-23T16:18:58.288Z,100313.81
2018-07-23T16:21:27.585Z,100303.23
2018-07-23T16:23:56.851Z,100308.47
2018-07-23T16:26:26.272Z,100304.02
2018-07-23T16:28:55.560Z,100308.34
2018-07-23T16:31:24.845Z,100303.11
2018-07-23T16:33:54.113Z,100302.38
2018-07-23T16:36:23.443Z,100295.02
2018-07-23T16:38:52.639Z,100290.86
2018-07-23T16:41:21.870Z,100284.90
2018-07-23T16:43:51.159Z,100289.97
2018-07-23T16:46:20.510Z,100289.62
2018-07-23T16:48:49.809Z,100286.28
2018-07-23T16:51:19.063Z,100287.16
2018-07-23T16:53:48.270Z,100283.87
2018-07-23T16:56:17.530Z,100287.89
2018-07-23T16:58:46.748Z,100287.93
2018-07-23T17:01:16.156Z,100293.03
2018-07-23T17:03:45.361Z,100298.12
2018-07-23T17:06:14.796Z,100293.92
2018-07-23T17:08:44.059Z,100295.20
2018-07-23T17:11:13.458Z,100293.45
2018-07-23T17:13:42.759Z,100296.27
2018-07-23T17:16:12.320Z,100293.68
2018-07-23T17:18:41.548Z,100293.09
2018-07-23T17:21:11.359Z,100287.47
2018-07-23T17:23:40.772Z,100288.53
2018-07-23T17:26:10.012Z,100288.59
2018-07-23T17:28:39.330Z,100297.17
2018-07-23T17:31:09.138Z,100297.23
2018-07-23T17:33:38.473Z,100290.85
2018-07-23T17:36:07.837Z,100295.58
2018-07-23T17:38:37.071Z,100291.39
2018-07-23T17:41:06.322Z,100289.16
2018-07-23T17:43:36.040Z,100287.46
2018-07-23T17:46:05.317Z,100291.92
2018-07-23T17:48:34.606Z,100288.45
2018-07-23T17:51:04.004Z,100291.26
2018-07-23T17:53:33.263Z,100287.92
2018-07-23T17:56:02.922Z,100284.62
2018-07-23T17:58:32.330Z,100286.58
2018-07-23T18:01:01.689Z,100286.94
2018-07-23T18:03:31.129Z,100292.24
2018-07-23T18:06:00.542Z,100293.59
2018-07-23T18:08:30.007Z,100291.63
2018-07-23T18:10:59.341Z,100293.02
2018-07-23T18:13:28.738Z,100294.95
2018-07-23T18:15:58.845Z,100296.05
2018-07-23T18:18:28.301Z,100294.69
2018-07-23T18:20:58.037Z,100293.89
2018-07-23T18:23:27.553Z,100296.95
2018-07-23T18:25:56.991Z,100298.61
2018-07-23T18:28:26.492Z,100296.44
2018-07-23T18:30:55.825Z,100299.78
2018-07-23T18:33:25.057Z,100297.27
2018-07-23T18:35:54.484Z,100297.30
2018-07-23T18:38:23.853Z,100305.60
2018-07-23T18:40:53.147Z,100302.57
2018-07-23T18:43:22.502Z,100302.87
2018-07-23T18:45:51.781Z,100301.78
2018-07-23T18:49:31.763Z,100301.51
2018-07-23T18:52:01.080Z,100299.88
2018-07-23T18:54:31.411Z,100299.34
2018-07-23T18:57:01.870Z,100300.16
2018-07-23T18:59:31.238Z,100299.60
2018-07-23T19:02:01.384Z,100301.81
2018-07-23T19:04:30.521Z,100304.59
2018-07-23T19:06:59.949Z,100308.99
2018-07-23T19:09:29.856Z,100305.71
2018-07-23T19:11:59.725Z,100307.08
2018-07-23T19:14:29.165Z,100310.95
2018-07-23T19:16:59.339Z,100310.64
2018-07-23T19:19:28.636Z,100304.28
2018-07-23T19:21:57.898Z,100311.97
2018-07-23T19:24:27.050Z,100316.10
2018-07-23T19:26:56.386Z,100317.72
2018-07-23T19:29:25.672Z,100323.71
2018-07-23T19:31:54.995Z,100319.30
2018-07-23T19:34:24.255Z,100318.66
2018-07-23T19:36:53.510Z,100321.23
2018-07-23T19:39:22.893Z,100322.52
2018-07-23T19:41:52.234Z,100327.50
2018-07-23T19:44:21.492Z,100329.77
2018-07-23T19:46:50.890Z,100327.33
2018-07-23T19:49:20.066Z,100328.03
2018-07-23T19:51:49.297Z,100325.57
2018-07-23T19:54:18.585Z,100330.67
2018-07-23T19:56:47.702Z,100336.36
2018-07-23T19:59:16.999Z,100337.95
2018-07-23T20:01:46.391Z,100333.10
2018-07-23T20:04:15.637Z,100331.64
2018-07-23T20:06:45.041Z,100331.38
2018-07-23T20:09:14.300Z,100338.63
2018-07-23T20:11:43.570Z,100332.95
2018-07-23T20:14:12.838Z,100331.34
2018-07-23T20:16:42.190Z,100334.91
2018-07-23T20:19:11.558Z,100331.08
2018-07-23T20:21:40.943Z,100332.45
2018-07-23T20:24:10.058Z,100329.42
2018-07-23T20:26:39.281Z,100330.39
2018-07-23T20:29:08.790Z,100334.20
2018-07-23T20:31:38.109Z,100334.45
2018-07-23T20:34:07.370Z,100332.23
2018-07-23T20:36:36.845Z,100331.87
2018-07-23T20:39:07.847Z,100332.73
2018-07-23T20:41:37.146Z,100335.59
2018-07-23T20:44:06.409Z,100337.45
2018-07-23T20:46:35.622Z,100336.81
2018-07-23T20:49:04.847Z,100341.78
2018-07-23T20:51:34.517Z,100340.12
2018-07-23T20:54:03.737Z,100336.56
2018-07-23T20:56:33.078Z,100340.09
2018-07-23T20:59:02.077Z,100348.14
2018-07-23T21:01:31.022Z,100338.41
2018-07-23T21:04:00.355Z,100339.41
2018-07-23T21:06:29.347Z,100343.52
2018-07-23T21:08:58.258Z,100346.28
2018-07-23T21:11:27.210Z,100343.26
2018-07-23T21:13:56.489Z,100338.86
2018-07-23T21:16:25.730Z,100338.31
2018-07-23T21:18:55.422Z,100339.66
2018-07-23T21:21:24.742Z,100342.88
2018-07-23T21:23:54.117Z,100346.13
2018-07-23T21:26:23.597Z,100351.03
2018-07-23T21:28:52.950Z,100353.41
2018-07-23T21:31:22.640Z,100357.92
2018-07-23T21:33:52.057Z,100347.72
2018-07-23T21:36:21.338Z,100345.56
2018-07-23T21:38:50.645Z,100354.05
2018-07-23T21:41:19.905Z,100353.58
2018-07-23T21:43:49.157Z,100358.18
2018-07-23T21:46:18.423Z,100346.36
2018-07-23T21:48:48.045Z,100359.75
2018-07-23T21:51:17.353Z,100344.05
2018-07-23T21:53:46.682Z,100349.48
2018-07-23T21:56:15.940Z,100349.52
2018-07-23T21:58:45.137Z,100346.16
2018-07-23T22:01:14.298Z,100344.70
2018-07-23T22:03:43.550Z,100348.20
2018-07-23T22:06:12.905Z,100351.97
2018-07-23T22:08:42.142Z,100348.90
2018-07-23T22:11:11.447Z,100350.11
2018-07-23T22:13:40.751Z,100343.55
2018-07-23T22:16:10.110Z,100341.68
2018-07-23T22:18:39.353Z,100348.11
2018-07-23T22:21:09.280Z,100343.34
2018-07-23T22:23:38.591Z,100347.86
2018-07-23T22:26:07.937Z,100348.64
2018-07-23T22:28:37.374Z,100346.70
2018-07-23T22:31:06.618Z,100343.38
2018-07-23T22:33:35.981Z,100343.08
2018-07-23T22:36:05.252Z,100344.95
2018-07-23T22:38:34.482Z,100349.21
2018-07-23T22:41:03.818Z,100347.75
2018-07-23T22:43:33.274Z,100346.88
2018-07-23T22:46:02.434Z,100343.80
2018-07-23T22:48:31.830Z,100345.08
2018-07-23T22:51:01.039Z,100336.30
2018-07-23T22:53:30.261Z,100337.85
2018-07-23T22:55:59.625Z,100336.64
2018-07-23T22:58:28.858Z,100340.81
2018-07-23T23:00:58.015Z,100337.58
2018-07-23T23:03:27.281Z,100334.95
2018-07-23T23:05:56.538Z,100338.86
2018-07-23T23:08:25.765Z,100333.48
2018-07-23T23:10:55.019Z,100335.55
2018-07-23T23:13:24.362Z,100342.27
2018-07-23T23:15:53.522Z,100332.94
2018-07-23T23:18:22.845Z,100338.35
2018-07-23T23:20:52.179Z,100337.97
2018-07-23T23:23:21.501Z,100331.67
2018-07-23T23:25:50.846Z,100334.06
2018-07-23T23:28:20.050Z,100330.80
2018-07-23T23:30:49.274Z,100331.03
2018-07-23T23:33:18.523Z,100330.98
2018-07-23T23:35:48.183Z,100329.02
2018-07-23T23:38:17.481Z,100322.73
2018-07-23T23:40:46.814Z,100328.73
2018-07-23T23:43:16.154Z,100328.43
2018-07-23T23:45:45.397Z,100321.34
2018-07-23T23:48:14.773Z,100329.30
2018-07-23T23:50:44.009Z,100323.94
2018-07-23T23:53:13.377Z,100330.16
2018-07-23T23:55:42.701Z,100330.94
2018-07-23T23:58:11.952Z,100323.97
